Share

Aquilla, AL

9:48 PM CDT on April 23, 2014 (GMT -0500)
Key (KMEI) Elev 308 ft | 32.33 °N, 88.75 °W | Change Station

Current weather conditions updated 50 minutes ago

Clear
Clear
61 °F
Feels Like 61 °F
N
0
Wind Variable Wind from North
Sunrise 6:16 AM
Sunset 7:27 PM
Moon Waning Crescent

Tomorrow is forecast to be Warmer than today.

Pressure 29.93 in
Visibility 10.0 miles
Clouds Clear
Dew Point 56 °F
Humidity 83%
Rainfall 0.00 in
Snow Depth Not available.
UV 0 out of 16
Pollen 7.90 out of 12
Air Quality Not available.
Flu Activity Sporadic
METAR KMEI 240158Z 00000KT 10SM CLR 16/13 A2993 RMK AO2 SLP133 T01610133

More Conditions Fewer Conditions

Pressure 29.93 in
Visibility 10.0 miles
Clouds Clear
Dew Point 56 °F
Humidity 83%
Rainfall 0.00 in
Snow Depth Not available.
UV 0 out of 16
Pollen 7.90 out of 12
Air Quality Not available.
Flu Activity Sporadic
METAR KMEI 240158Z 00000KT 10SM CLR 16/13 A2993 RMK AO2 SLP133 T01610133

More Conditions Fewer Conditions

10-Day Weather Forecast

Almanac

Astronomy

Apr. 23, 2014 Rise Set
Actual Time 6:16 AM CDT 7:27 PM CDT
Civil Twilight 5:50 AM CDT 7:53 PM CDT
Nautical Twilight 5:20 AM CDT 8:23 PM CDT
Astronomical Twilight 4:49 AM CDT 8:54 PM CDT
Moon 2:24 AM CDT (4/23) 1:57 PM CDT (4/23)
Length of Visible Light 14h 02m
Length of Day
13h 11m
Tomorrow will be 1m 44s longer.
Waning Crescent, 30% of the Moon is Illuminated
Today
Waning Crescent
Apr 29
New
May 6
First Quarter
May 14
Full
May 21
Last Quarter

Today's Extremes

State Highs State Lows

Community

  • Nestled In
    Nestled In
  • Stunning Sunrise
    Stunning Sunrise
  • spring flowers
    spring flowers
  • Earth Day Spectrum Ove' Blue
    Earth Day Spectrum Ove' Blue
  • BARN B&W
    BARN B&W

WunderPhotos

Upload Photos

1,704,525 photos uploaded!

WunderBlogs® & News

Nearby

Snow Depth

Station Depth Elevation
No new snow has been reported.

Coastal Water Temperatures

Place Temperature
No Stations Reporting

Earthquake Activity

City Distance Mag. Time & Date
No recent earthquake activity has been reported nearby.
Minimum magnitude displayed is 2.5.

Nearby Weather Stations

There are no personal weather stations in this area.

What do you think?

We're not finished. Please let us know what you like, what you don't like, and what you are still missing.